Airfield :
LOGIN :

Register | Disclaimer

   EN    FR    IT 

 










Legend :    VFR   Marginal VFR   IFR   Intensive IFR   Very Intensive IFR
Visi :
Ceiling :
>= 8 km
>= 3000ft
5 to 8 km
1000 to 3000 ft
1500m to 5 km
500 to 1000 ft
800 to 1500m
200 to 500 ft
< 800m
< 200 ft
Symbols :   Thunderstorms  Fog  Heavy snow  Heavy precipitations  Wind > 20 kt
SIGMETs :     Misc.  Thunderstorms  Icing  Turbulence  Mountain Waves  Volcanic Ashes






- Airport Elevation : 1906 ft
- IATA code : INN


LOWI - Innsbruck

CURRENT METAR :
  • 240350Z AUTO 28019G29KT 250V320 9999 -SHRA FEW048 BKN050 15/05 Q1019

EXPIRED METARs :
  • 240320Z AUTO 28022G37KT 9999 -SHRA FEW046 BKN060 16/05 Q1019
  • 240250Z AUTO 28019G35KT 250V340 9999 -SHRA FEW026 BKN070 17/04 Q1018
  • 240220Z AUTO 28019G30KT 250V320 9999 FEW048 BKN070 17/04 Q1018
  • 240150Z AUTO 27021G38KT 240V300 9999 FEW050 BKN070 17/03 Q1018
  • 240120Z AUTO 27020G31KT 250V310 9999 FEW070 BKN080 18/02 Q1018

TAF TAF LOWI
Valid from the 24 at 00:00 until the 25 at 00:00 UTC


232315Z 2400/2424 27015G35KT 9999 FEW070 BKN120 TX14/2400Z TN05/2424Z
BECMG 2400/2402 08010KT -RA SCT030 BKN060
TEMPO 2402/2407 27020G35KT SHRA
BECMG 2410/2412 09006KT FEW050
BECMG 2416/2418 27004KT CAVOK



MET'MAP, your aeronautical weather chart ! - Copyright ORBIFLY December 2007 - Disclaimer

ORBIFLY MET'MAP TEAM :

Programming & Development : Alexandra Zaïnal
Concept & original design : Baudouin d'Aumeries
Assistance for programming : Marc-Olivier Méhu
Technical & hardware support : Manuel Goepfert

Contact : metmap@orbifly.com




SOURCES & CREDITS :

   NOAA